Latest Weather Observations for Yarrawonga

IDV60801

Issued at 1:02 pm EST Friday 31 July 2015 (issued every 30 minutes, with the page automatically refreshed every 10 minutes)

About weather observations | Map of weather stations | Latest weather observations for VIC | Other Formats
Station Details ID: 081124 Name: YARRAWONGA Lat: -36.03 Lon: 146.03 Height: 128.9 m
Data from the previous 72 hours. | See also: Recent months at Yarrawonga
Date/Time
EST
Temp
°C
App
Temp
°C
Dew
Point
Rel
Hum
%
Delta-T
°C
Wind Press
QNH
hPa
Press
MSL
hPa
Rain
since 9 am
mm
Dir
 
Spd
km/h
Gust
km/h
Spd
kts
Gust
kts
31/01:00pm 10.9 8.7 6.1 72 2.2 NE 7 11 4 6 1020.5 1020.8 0.0
31/12:30pm 10.5 9.1 5.5 71 2.3 NNW 2 6 1 3 1021.1 1021.4 0.0
31/12:00pm 10.0 8.5 6.7 80 1.6 W 4 6 2 3 1021.7 1022.0 0.0
31/11:30am 9.1 8.0 6.7 85 1.1 WSW 2 6 1 3 1021.9 1022.2 0.0
31/11:00am 8.7 7.6 6.8 88 0.9 WSW 2 6 1 3 1022.0 1022.3 0.0
31/10:30am 7.8 5.9 6.6 92 0.6 W 6 9 3 5 1022.2 1022.5 0.0
31/10:00am 7.7 4.8 6.6 93 0.5 W 11 13 6 7 1022.2 1022.5 0.0
31/09:30am 7.5 5.1 6.8 95 0.3 WSW 9 11 5 6 1021.7 1022.0 0.0
31/09:00am 7.8 4.6 6.9 94 0.4 SW 13 17 7 9 1021.4 1021.7 0.0
31/08:30am 8.1 6.0 6.7 91 0.7 WSW 7 9 4 5 1021.0 1021.3 0.0
31/08:00am 7.7 5.8 6.8 94 0.4 SW 6 9 3 5 1020.8 1021.1 0.0
31/07:30am 7.2 5.7 6.8 97 0.2 SW 4 6 2 3 1020.3 1020.6 0.0
31/07:00am 7.0 4.9 6.7 98 0.1 SW 7 9 4 5 1019.9 1020.2 0.0
31/06:30am 6.5 3.9 6.2 98 0.1 SW 9 11 5 6 1019.7 1020.0 0.0
31/06:00am 5.5 3.0 4.8 95 0.3 WSW 7 9 4 5 1019.3 1019.6 0.0
31/05:30am 8.1 6.2 6.6 90 0.7 SW 6 9 3 5 1018.9 1019.2 0.0
31/05:00am 8.3 5.5 7.1 92 0.6 SW 11 15 6 8 1018.8 1019.1 0.0
31/04:30am 8.4 5.7 7.3 93 0.5 SW 11 15 6 8 1018.6 1018.9 0.0
31/04:00am 8.4 5.6 7.0 91 0.7 SW 11 17 6 9 1018.6 1018.9 0.0
31/03:30am 8.0 6.8 6.6 91 0.6 SW 2 4 1 2 1018.2 1018.4 0.0
31/03:00am 7.9 7.0 6.0 88 0.9 CALM 0 0 0 0 1018.2 1018.4 0.0
31/02:30am 8.4 6.1 5.5 82 1.3 W 7 13 4 7 1018.5 1018.7 0.0
31/02:00am 9.6 7.3 5.6 76 1.8 NW 7 13 4 7 1018.6 1018.9 0.0
31/01:30am 9.0 7.3 6.1 82 1.3 W 4 6 2 3 1018.8 1019.1 0.0
31/01:00am 8.9 7.3 6.3 84 1.2 NNW 4 6 2 3 1018.6 1018.9 0.0
31/12:30am 8.9 6.3 6.3 84 1.2 NNE 9 13 5 7 1018.6 1018.9 0.0
31/12:00am 8.8 6.2 6.3 84 1.2 NNE 9 13 5 7 1018.7 1019.0 0.0
 
Date/Time
EST
Temp
°C
App
Temp
°C
Dew
Point
Rel
Hum
%
Delta-T
°C
Wind Press
QNH
hPa
Press
MSL
hPa
Rain
since 9 am
mm
Dir
 
Spd
km/h
Gust
km/h
Spd
kts
Gust
kts
30/11:30pm 9.0 6.1 6.3 83 1.3 NNE 11 15 6 8 1019.0 1019.3 0.0
30/11:00pm 9.1 6.6 6.4 83 1.3 NNE 9 13 5 7 1019.4 1019.7 0.0
30/10:30pm 8.8 6.3 6.4 85 1.1 NNE 9 13 5 7 1019.4 1019.7 0.0
30/10:00pm 8.9 6.4 6.5 85 1.1 NNE 9 13 5 7 1019.4 1019.7 0.0
30/09:30pm 8.8 6.3 6.4 85 1.1 NNE 9 11 5 6 1019.6 1019.9 0.0
30/09:00pm 8.9 6.4 6.5 85 1.1 NE 9 15 5 8 1019.4 1019.7 0.0
30/08:30pm 8.8 6.3 6.4 85 1.1 NE 9 13 5 7 1019.5 1019.8 0.0
30/08:00pm 8.5 6.1 6.8 89 0.8 NE 9 13 5 7 1019.7 1020.0 0.0
30/07:30pm 8.4 6.5 6.5 88 0.9 E 6 7 3 4 1019.9 1020.2 0.0
30/07:00pm 8.9 6.7 6.3 84 1.2 NNE 7 9 4 5 1019.4 1019.7 0.0
30/06:30pm 9.2 7.2 6.1 81 1.4 NNE 6 7 3 4 1019.6 1019.9 0.0
30/06:00pm 9.4 6.8 6.1 80 1.5 NE 9 13 5 7 1019.1 1019.4 0.0
30/05:30pm 9.5 6.5 5.9 78 1.7 NNE 11 15 6 8 1018.8 1019.1 0.0
30/05:00pm 9.6 7.0 6.0 78 1.7 NNE 9 13 5 7 1019.1 1019.4 0.0
30/04:30pm 9.9 7.3 5.9 76 1.9 N 9 13 5 7 1019.7 1020.0 0.0
30/04:00pm 10.5 7.0 5.3 70 2.4 N 13 19 7 10 1020.3 1020.6 0.0
30/03:30pm 10.8 8.2 6.0 72 2.2 N 9 13 5 7 1020.2 1020.5 0.0
30/03:00pm 10.5 7.1 5.9 73 2.1 N 13 19 7 10 1020.4 1020.7 0.0
30/02:30pm 10.9 7.5 5.7 70 2.4 N 13 19 7 10 1020.8 1021.1 0.0
30/02:00pm 10.9 7.1 5.9 71 2.3 N 15 20 8 11 1021.4 1021.7 0.0
30/01:30pm 10.7 7.0 6.1 73 2.2 N 15 20 8 11 1021.3 1021.6 0.0
30/01:00pm 11.0 6.9 6.2 72 2.2 N 17 24 9 13 1022.2 1022.5 0.0
30/12:30pm 10.5 7.6 6.5 76 1.9 N 11 15 6 8 1023.1 1023.3 0.0
30/12:00pm 10.6 7.0 6.6 76 1.9 N 15 19 8 10 1023.8 1024.0 0.0
30/11:30am 11.0 8.0 7.5 79 1.7 N 13 19 7 10 1024.3 1024.5 0.0
30/11:00am 10.6 7.8 6.9 78 1.8 NNE 11 15 6 8 1024.7 1024.9 0.0
30/10:30am 9.1 6.5 6.0 81 1.4 NNE 9 13 5 7 1025.2 1025.5 0.0
30/10:00am 9.0 6.8 6.1 82 1.3 NNE 7 11 4 6 1025.2 1025.5 0.0
30/09:30am 8.3 6.0 5.8 84 1.1 NNE 7 11 4 6 1025.2 1025.5 0.0
30/09:00am 8.0 6.0 6.3 89 0.8 NE 6 9 3 5 1025.2 1025.5 0.0
30/08:30am 7.1 4.9 6.2 94 0.4 NE 7 11 4 6 1025.2 1025.5 0.0
30/08:00am 6.6 4.5 6.0 96 0.3 NE 6 7 3 4 1025.4 1025.7 0.0
30/07:30am 6.5 4.3 6.1 97 0.2 NE 7 9 4 5 1025.4 1025.7 0.0
30/07:00am 6.1 4.4 5.7 97 0.2 E 4 6 2 3 1025.5 1025.8 0.0
30/06:30am 6.3 4.6 5.7 96 0.3 NE 4 4 2 2 1025.7 1026.0 0.0
30/06:00am 6.6 5.7 6.0 96 0.3 CALM 0 4 0 2 1025.9 1026.2 0.0
30/05:30am 6.5 4.2 5.9 96 0.3 ENE 7 9 4 5 1025.8 1026.1 0.0
30/05:00am 6.6 4.3 5.9 95 0.3 ENE 7 9 4 5 1025.9 1026.2 0.0
30/04:30am 6.8 4.7 5.9 94 0.4 NE 6 9 3 5 1026.2 1026.5 0.0
30/04:00am 6.8 4.8 6.1 95 0.3 NE 6 9 3 5 1026.2 1026.5 0.0
30/03:30am 6.8 4.2 6.1 95 0.3 ENE 9 11 5 6 1026.4 1026.7 0.0
30/03:00am 6.7 4.6 6.0 95 0.3 ENE 6 6 3 3 1026.9 1027.2 0.0
30/02:30am 7.1 5.0 6.0 93 0.5 NE 6 7 3 4 1027.3 1027.6 0.0
30/02:00am 7.0 5.0 6.1 94 0.4 NE 6 7 3 4 1027.6 1027.9 0.0
30/01:30am 6.7 4.5 6.0 95 0.3 NE 7 9 4 5 1027.7 1028.0 0.0
30/01:00am 6.8 4.6 6.1 95 0.3 NE 7 9 4 5 1028.3 1028.6 0.0
30/12:30am 6.8 5.1 5.9 94 0.4 NE 4 6 2 3 1028.6 1028.9 0.0
30/12:00am 6.8 5.1 6.1 95 0.3 E 4 6 2 3 1028.8 1029.1 0.0
 
Date/Time
EST
Temp
°C
App
Temp
°C
Dew
Point
Rel
Hum
%
Delta-T
°C
Wind Press
QNH
hPa
Press
MSL
hPa
Rain
since 9 am
mm
Dir
 
Spd
km/h
Gust
km/h
Spd
kts
Gust
kts
29/11:30pm 7.0 6.2 6.3 95 0.3 CALM 0 0 0 0 1029.2 1029.5 0.0
29/11:00pm 6.7 4.6 5.8 94 0.4 E 6 9 3 5 1029.1 1029.4 0.0
29/10:30pm 7.2 6.0 6.3 94 0.4 NE 2 2 1 1 1029.6 1029.9 0.0
29/10:00pm 7.6 6.8 6.5 93 0.5 CALM 0 0 0 0 1029.8 1030.1 0.0
29/09:30pm 7.6 6.8 6.4 92 0.6 CALM 0 0 0 0 1029.6 1029.9 0.0
29/09:00pm 7.5 6.7 6.4 93 0.5 CALM 0 0 0 0 1029.9 1030.2 0.0
29/08:30pm 7.5 5.9 6.3 92 0.5 ENE 4 6 2 3 1029.5 1029.8 0.0
29/08:00pm 7.5 5.3 6.3 92 0.5 ENE 7 9 4 5 1029.6 1029.9 0.0
29/07:30pm 7.9 6.7 6.5 91 0.6 ENE 2 6 1 3 1029.9 1030.2 0.0
29/07:00pm 8.2 7.5 7.0 92 0.6 CALM 0 0 0 0 1030.0 1030.3 0.0
29/06:30pm 8.2 7.4 6.5 89 0.8 CALM 0 0 0 0 1029.9 1030.2 0.0
29/06:00pm 8.4 7.3 6.9 90 0.7 ENE 2 4 1 2 1029.7 1030.0 0.0
29/05:30pm 8.9 7.5 7.2 89 0.8 ENE 4 6 2 3 1029.6 1029.9 0.0
29/05:00pm 9.3 7.5 7.1 86 1.0 ENE 6 6 3 3 1029.7 1030.0 0.0
29/04:30pm 9.7 7.7 7.3 85 1.1 E 7 9 4 5 1029.8 1030.1 0.0
29/04:00pm 10.0 8.6 7.3 83 1.3 ESE 4 6 2 3 1030.3 1030.6 0.0
29/03:30pm 10.3 9.1 6.3 76 1.9 NE 2 4 1 2 1031.0 1031.3 0.0
29/03:00pm 11.0 9.9 7.1 77 1.9 NE 2 6 1 3 1031.0 1031.3 0.0
29/02:30pm 10.8 9.0 7.1 78 1.8 N 6 9 3 5 1031.3 1031.5 0.0
29/02:00pm 9.7 8.0 7.6 87 1.0 NE 6 9 3 5 1031.3 1031.5 0.0
29/01:30pm 8.3 6.4 6.9 91 0.7 ENE 6 9 3 5 1031.9 1032.2 0.0
29/01:00pm 7.4 5.9 6.7 95 0.3 NNE 4 6 2 3 1033.2 1033.5 0.0
29/12:30pm 6.8 4.9 6.8 100 0.0 N 6 9 3 5 1033.6 1033.9 0.0
29/12:00pm 6.2 4.2 6.1 99 0.0 N 6 9 3 5 1033.8 1034.1 0.0
29/11:30am 5.8 3.7 5.7 99 0.0 NNE 6 9 3 5 1034.0 1034.3 0.0
29/11:00am 5.0 2.7 4.9 99 0.0 NNE 6 7 3 4 1035.0 1035.3 0.0
29/10:30am 4.5 2.1 4.4 99 0.0 NE 6 9 3 5 1034.9 1035.2 0.0
29/10:00am 4.0 1.5 3.9 99 0.0 ENE 6 7 3 4 1035.0 1035.3 0.0
29/09:30am 3.4 0.8 3.3 99 0.0 NNE 6 9 3 5 1035.2 1035.5 0.0
29/09:00am 2.9 0.2 2.8 99 0.0 E 6 7 3 4 1034.8 1035.1 0.2
29/08:30am 1.7 -1.2 1.4 98 0.1 E 6 7 3 4 1034.7 1035.0 0.2
29/08:00am 1.1 -1.9 0.8 98 0.1 E 6 9 3 5 1034.7 1035.0 0.0
29/07:30am 0.1 -2.7 -0.2 98 0.1 ENE 4 6 2 3 1034.5 1034.8 0.0
29/07:00am -0.3 -3.1 -0.6 98 0.1 ESE 4 4 2 2 1034.3 1034.6 0.0
29/06:30am -0.2 -3.4 -0.5 98 0.1 ESE 6 7 3 4 1033.8 1034.1 0.0
29/06:00am -0.4 -3.3 -0.8 97 0.1 ESE 4 6 2 3 1033.9 1034.2 0.0
29/05:30am -0.9 -3.8 -1.3 97 0.1 ESE 4 4 2 2 1033.6 1033.9 0.0
29/05:00am -0.5 -3.4 -0.9 97 0.1 ESE 4 6 2 3 1033.6 1033.9 0.0
29/04:30am -1.1 -4.4 -1.5 97 0.1 ESE 6 7 3 4 1033.6 1033.9 0.0
29/04:00am -1.1 -3.3 -1.5 97 0.1 CALM 0 2 0 1 1033.6 1033.9 0.0
29/03:30am -1.0 -3.2 -1.4 97 0.1 CALM 0 0 0 0 1033.6 1033.9 0.0
29/03:00am -0.6 -3.1 -1.0 97 0.1 N 2 4 1 2 1033.3 1033.6 0.0
29/02:30am -0.1 -2.5 -0.5 97 0.1 E 2 2 1 1 1033.3 1033.6 0.0
29/02:00am -0.5 -3.8 -1.1 96 0.2 ESE 6 6 3 3 1033.6 1033.9 0.0
29/01:30am -0.3 -3.2 -0.9 96 0.2 SSE 4 4 2 2 1034.2 1034.5 0.0
29/01:00am -0.2 -2.7 -0.8 96 0.2 SSW 2 4 1 2 1034.0 1034.3 0.0
29/12:30am 0.2 -1.8 -0.4 96 0.2 CALM 0 0 0 0 1034.1 1034.4 0.0
29/12:00am 0.4 -2.0 -0.2 96 0.2 WSW 2 2 1 1 1034.5 1034.8 0.0
 
Date/Time
EST
Temp
°C
App
Temp
°C
Dew
Point
Rel
Hum
%
Delta-T
°C
Wind Press
QNH
hPa
Press
MSL
hPa
Rain
since 9 am
mm
Dir
 
Spd
km/h
Gust
km/h
Spd
kts
Gust
kts
28/11:30pm 1.2 -1.8 0.6 96 0.2 W 6 6 3 3 1034.6 1034.9 0.0
28/11:00pm 2.2 0.5 1.6 96 0.2 CALM 0 0 0 0 1034.4 1034.7 0.0
28/10:30pm 2.3 0.6 1.6 95 0.3 CALM 0 0 0 0 1034.5 1034.8 0.0
28/10:00pm 3.4 1.5 2.8 96 0.2 W 2 4 1 2 1034.5 1034.8 0.0
28/09:30pm 2.8 -0.2 2.1 95 0.3 W 7 7 4 4 1034.8 1035.1 0.0
28/09:00pm 4.0 1.8 3.3 95 0.3 WSW 4 4 2 2 1034.6 1034.9 0.0
28/08:30pm 4.4 2.3 3.7 95 0.3 WSW 4 4 2 2 1034.7 1035.0 0.0
28/08:00pm 4.3 2.1 3.4 94 0.4 WSW 4 4 2 2 1034.6 1034.9 0.0
28/07:30pm 4.5 2.0 3.5 93 0.4 SW 6 6 3 3 1034.5 1034.8 0.0
28/07:00pm 5.8 3.8 4.4 91 0.6 SW 4 6 2 3 1034.3 1034.6 0.0
28/06:30pm 6.9 5.1 5.2 89 0.8 SSW 4 4 2 2 1034.1 1034.4 0.0
28/06:00pm 7.7 5.9 5.5 86 1.0 SSW 4 4 2 2 1033.8 1034.1 0.0
28/05:30pm 8.6 6.4 5.5 81 1.4 SW 6 7 3 4 1033.8 1034.1 0.0
28/05:00pm 10.6 8.4 6.4 75 2.0 SW 7 9 4 5 1033.6 1033.9 0.0
28/04:30pm 12.1 9.6 6.6 69 2.6 SW 9 13 5 7 1033.6 1033.9 0.0
28/04:00pm 12.2 10.3 6.5 68 2.7 SSW 6 9 3 5 1033.7 1034.0 0.0
28/03:30pm 11.8 9.4 6.9 72 2.4 SW 9 13 5 7 1033.8 1034.1 0.0
28/03:00pm 13.2 10.3 6.3 63 3.3 SW 11 15 6 8 1033.7 1034.0 0.0
28/02:30pm 13.4 11.0 7.0 65 3.1 SSW 9 17 5 9 1033.7 1034.0 0.0
28/02:00pm 12.2 9.9 7.3 72 2.4 SW 9 13 5 7 1033.9 1034.2 0.0
28/01:30pm 11.7 9.1 6.2 69 2.6 SSW 9 13 5 7 1034.0 1034.3 0.0

Other Formats:

Comma delimited format used in spreadsheet applications
http://www.bom.gov.au/fwo/IDV60801/IDV60801.94862.axf

JavaScript Object Notation format (JSON) in row-major order
http://www.bom.gov.au/fwo/IDV60801/IDV60801.94862.json